Alorton, Illinois
Current Conditions -  °F | °C
As of 1:53 PM on Wednesday 17 Dec 2014 (Local Time) from KCPS Reporting Station
Clear Clear  
Wind Chill: 35°   Ceiling: Unl
Heat Index: 40°   Visibility: 10mi
Dew Point: 25°   Wind: 7mph
Humidity: 55%   Direction: 340°NNW
Pressure: 30.27"   Gusts: NA
Location:  38.5841°N, 90.126°W
Report Text: KCPS 171953Z 34006KT 10SM CLR 04/M04 A3027 RMK AO2 SLP254 T00441039
Loading
Personal Weather Stations






























Interactive Weather Map New forecast layout! Learn more

10-Day Weather Forecast

Advertisements
Track Severe Weather on mobile